Time;durP1;ratioP1;P1;durP2;ratioP2;P2;SDS_P1;SDS_P2;PMS_P1;PMS_P2;Temp;Humidity;BMP_temperature;BMP_pressure;BME280_temperature;BME280_humidity;BME280_pressure;Samples;Min_cycle;Max_cycle;Signal;HPM_P1;HPM_P2
2023/11/07 08:42:32;;;;;;;5.30;4.25;;;;;;;;;;6230588;22;20041;-87
2023/11/07 09:58:35;;;;;;;4.43;3.67;;;;;;;;;;6198302;22;20027;-91
2023/11/07 10:01:01;;;;;;;3.33;2.90;;;;;;;;;;6252253;22;20041;-95
2023/11/07 10:03:27;;;;;;;3.10;2.80;;;;;;;;;;6252670;22;20006;-87
2023/11/07 10:05:53;;;;;;;3.15;2.90;;;;;;;;;;6278894;22;20092;-90
2023/11/07 10:08:22;;;;;;;3.55;3.25;;;;;;;;;;6251547;22;20011;-84
2023/11/07 10:11:10;;;;;;;3.95;3.08;;;;;;;;;;6278993;22;20074;-85
2023/11/07 10:13:36;;;;;;;5.93;3.85;;;;;;;;;;6279222;22;20445;-84
2023/11/07 10:16:06;;;;;;;3.88;3.25;;;;;;;;;;6278683;22;20078;-89
2023/11/07 10:18:52;;;;;;;5.20;3.42;;;;;;;;;;6277608;22;20431;-89
2023/11/07 10:21:31;;;;;;;5.32;3.17;;;;;;;;;;6277450;22;20008;-86
2023/11/07 10:23:57;;;;;;;4.70;3.30;;;;;;;;;;6250464;22;20418;-88
2023/11/07 10:26:24;;;;;;;7.28;3.35;;;;;;;;;;6250147;22;20237;-89
2023/11/07 10:29:25;;;;;;;12.98;4.47;;;;;;;;;;6250300;22;20010;-87
2023/11/07 10:32:09;;;;;;;10.48;4.40;;;;;;;;;;6250325;22;20008;-86
2023/11/07 10:34:35;;;;;;;19.63;4.72;;;;;;;;;;6277191;22;20008;-87
2023/11/07 10:37:02;;;;;;;10.48;3.92;;;;;;;;;;6277708;22;20007;-87
2023/11/07 10:39:30;;;;;;;3.67;2.58;;;;;;;;;;6278167;22;20007;-93
2023/11/07 10:41:56;;;;;;;154.50;14.20;;;;;;;;;;6251665;22;20007;-89
2023/11/07 10:44:28;;;;;;;6.43;3.10;;;;;;;;;;6251000;22;20014;-91
2023/11/07 10:46:57;;;;;;;5.07;3.60;;;;;;;;;;6277952;22;19999;-90
2023/11/07 10:49:23;;;;;;;3.92;3.20;;;;;;;;;;6251592;22;19999;-89
2023/11/07 10:51:49;;;;;;;3.88;3.20;;;;;;;;;;6251682;22;20377;-91
2023/11/07 10:54:21;;;;;;;4.38;2.75;;;;;;;;;;6250811;22;20385;-90
2023/11/07 10:56:51;;;;;;;4.47;3.22;;;;;;;;;;6251817;22;20010;-90
2023/11/07 10:59:23;;;;;;;3.75;3.28;;;;;;;;;;6252157;22;20039;-90
2023/11/07 11:01:53;;;;;;;20.48;3.55;;;;;;;;;;6252273;22;20007;-91
2023/11/07 11:04:25;;;;;;;4.78;3.20;;;;;;;;;;6252608;22;20026;-91
2023/11/07 11:07:00;;;;;;;3.85;3.50;;;;;;;;;;6277894;22;20449;-90
2023/11/07 11:09:27;;;;;;;3.58;2.90;;;;;;;;;;6252669;22;20004;-90
2023/11/07 11:11:57;;;;;;;3.38;2.58;;;;;;;;;;6248551;22;20314;-93
2023/11/07 11:14:23;;;;;;;4.10;2.70;;;;;;;;;;6226353;22;20434;-90
2023/11/07 11:16:50;;;;;;;6.15;3.03;;;;;;;;;;6251588;22;20026;-91
2023/11/07 11:19:42;;;;;;;2.88;2.60;;;;;;;;;;6278116;22;20000;-89
2023/11/07 11:22:23;;;;;;;3.30;2.63;;;;;;;;;;6251201;22;20011;-94
2023/11/07 11:24:55;;;;;;;6.03;3.30;;;;;;;;;;6250651;22;20000;-87
2023/11/07 11:27:31;;;;;;;3.60;2.22;;;;;;;;;;6277560;22;20529;-87
2023/11/07 11:29:57;;;;;;;2.67;2.38;;;;;;;;;;6277399;22;20046;-87
2023/11/07 11:32:27;;;;;;;3.50;2.60;;;;;;;;;;6277329;22;20007;-88
2023/11/07 11:34:58;;;;;;;3.42;2.70;;;;;;;;;;6249705;22;20007;-81
2023/11/07 11:37:25;;;;;;;2.90;2.47;;;;;;;;;;6277030;22;20011;-80
2023/11/07 11:39:50;;;;;;;3.92;3.22;;;;;;;;;;6276863;22;20004;-80
2023/11/07 11:42:16;;;;;;;3.60;2.47;;;;;;;;;;6276909;22;20003;-81
2023/11/07 11:44:41;;;;;;;4.55;3.35;;;;;;;;;;6276823;22;20438;-83
2023/11/07 11:47:10;;;;;;;3.97;2.28;;;;;;;;;;6277113;22;20067;-83
2023/11/07 11:49:37;;;;;;;3.60;2.80;;;;;;;;;;6277028;22;20322;-89
2023/11/07 11:52:08;;;;;;;3.80;2.78;;;;;;;;;;6277184;22;20011;-83
2023/11/07 11:54:33;;;;;;;3.63;2.60;;;;;;;;;;6278488;22;20438;-83
2023/11/07 11:57:00;;;;;;;3.90;2.70;;;;;;;;;;6278953;22;20000;-83
2023/11/07 11:59:30;;;;;;;3.17;2.53;;;;;;;;;;6278891;22;20015;-83
2023/11/07 12:01:58;;;;;;;4.75;2.58;;;;;;;;;;6278925;22;20075;-83
2023/11/07 12:04:38;;;;;;;5.88;3.05;;;;;;;;;;6278755;22;20015;-84
2023/11/07 12:07:24;;;;;;;5.00;2.97;;;;;;;;;;6278917;22;20053;-84
2023/11/07 12:09:56;;;;;;;4.00;2.58;;;;;;;;;;6278788;22;20034;-84
2023/11/07 12:12:21;;;;;;;3.35;2.55;;;;;;;;;;6279009;22;20003;-83
2023/11/07 12:14:55;;;;;;;3.90;2.40;;;;;;;;;;6278753;22;20003;-83
2023/11/07 12:17:43;;;;;;;3.40;2.67;;;;;;;;;;6251625;22;20014;-83
2023/11/07 12:20:14;;;;;;;4.80;2.40;;;;;;;;;;6251657;22;20000;-83
2023/11/07 12:22:43;;;;;;;4.47;2.67;;;;;;;;;;6278902;22;20058;-83
2023/11/07 12:25:13;;;;;;;4.40;2.67;;;;;;;;;;6278530;22;20075;-83
2023/11/07 12:27:41;;;;;;;3.70;2.83;;;;;;;;;;6278541;22;19996;-83
2023/11/07 12:30:11;;;;;;;9.13;5.45;;;;;;;;;;6278787;22;19999;-83
2023/11/07 12:32:37;;;;;;;6.72;3.17;;;;;;;;;;6278502;22;20339;-87
2023/11/07 12:35:16;;;;;;;5.03;3.28;;;;;;;;;;6278618;22;20015;-86
2023/11/07 12:37:41;;;;;;;4.28;2.78;;;;;;;;;;6278675;22;19995;-87
2023/11/07 12:40:11;;;;;;;4.30;2.88;;;;;;;;;;6278736;22;20083;-85
2023/11/07 12:42:38;;;;;;;5.85;2.92;;;;;;;;;;6279175;22;20365;-87
2023/11/07 12:45:06;;;;;;;3.75;2.40;;;;;;;;;;6278799;22;20007;-86
2023/11/07 20:05:10;;;;;;;2.15;2.03;;;;;;;;;;6262580;22;20039;-87
2023/11/07 20:07:37;;;;;;;2.42;2.10;;;;;;;;;;6249874;22;20020;-87
2023/11/07 20:10:07;;;;;;;2.72;2.13;;;;;;;;;;6250079;22;20007;-88
2023/11/07 20:12:33;;;;;;;4.60;2.97;;;;;;;;;;6249923;22;20014;-87
2023/11/07 20:14:58;;;;;;;3.63;2.80;;;;;;;;;;6250952;22;20007;-88
2023/11/07 20:17:25;;;;;;;3.30;2.95;;;;;;;;;;6251786;22;20315;-87
2023/11/07 20:19:52;;;;;;;5.03;3.80;;;;;;;;;;6278865;22;20003;-87
2023/11/07 20:22:18;;;;;;;2.67;1.90;;;;;;;;;;6251315;22;20020;-87
2023/11/07 20:24:45;;;;;;;2.40;2.20;;;;;;;;;;6278815;22;20014;-87
2023/11/07 20:27:11;;;;;;;3.80;2.95;;;;;;;;;;6251783;22;20427;-87
2023/11/07 20:29:37;;;;;;;3.58;2.80;;;;;;;;;;6279302;22;20053;-86
2023/11/07 20:32:03;;;;;;;4.38;2.63;;;;;;;;;;6278735;22;20023;-87
2023/11/07 20:34:30;;;;;;;3.10;2.80;;;;;;;;;;6278945;22;20419;-89
2023/11/07 20:36:56;;;;;;;3.30;2.70;;;;;;;;;;6278794;22;20027;-85
2023/11/07 20:39:21;;;;;;;3.92;2.83;;;;;;;;;;6251544;22;20464;-87
2023/11/07 20:41:47;;;;;;;2.92;2.65;;;;;;;;;;6278489;22;20004;-85
2023/11/07 20:44:12;;;;;;;3.40;3.10;;;;;;;;;;6278707;22;20415;-87
2023/11/07 20:46:37;;;;;;;4.53;2.58;;;;;;;;;;6279106;22;20023;-86
2023/11/07 20:49:04;;;;;;;2.78;2.55;;;;;;;;;;6278500;22;20451;-87
2023/11/07 20:51:31;;;;;;;2.40;2.20;;;;;;;;;;6278550;22;20007;-88
2023/11/07 20:53:56;;;;;;;2.22;2.03;;;;;;;;;;6251360;22;20006;-87
2023/11/07 20:56:25;;;;;;;2.17;1.98;;;;;;;;;;6278662;22;20019;-89
2023/11/07 20:58:51;;;;;;;5.55;2.30;;;;;;;;;;6252006;22;20003;-89
2023/11/07 21:01:16;;;;;;;2.40;2.08;;;;;;;;;;6278409;22;20465;-89
2023/11/07 21:03:43;;;;;;;2.60;2.28;;;;;;;;;;6278590;22;20000;-88
2023/11/07 21:06:09;;;;;;;2.45;2.30;;;;;;;;;;6220978;23;20153;-88
2023/11/07 21:08:34;;;;;;;3.25;2.95;;;;;;;;;;6220944;23;20427;-88
2023/11/07 21:11:00;;;;;;;3.92;3.20;;;;;;;;;;6220852;23;20058;-89
2023/11/07 21:13:27;;;;;;;10.63;3.22;;;;;;;;;;6220873;23;20030;-87
2023/11/07 21:15:52;;;;;;;5.95;4.97;;;;;;;;;;6247650;23;20084;-87
2023/11/07 21:18:18;;;;;;;96.40;37.83;;;;;;;;;;6220623;23;20036;-86
2023/11/07 21:20:43;;;;;;;163.73;62.03;;;;;;;;;;6220734;23;20008;-87
2023/11/07 21:23:08;;;;;;;113.50;43.05;;;;;;;;;;6247635;23;20035;-86
2023/11/07 21:25:34;;;;;;;93.53;40.58;;;;;;;;;;6220517;23;20092;-86
2023/11/07 21:27:59;;;;;;;82.45;32.00;;;;;;;;;;6247714;23;20004;-86
2023/11/07 21:30:26;;;;;;;17.50;8.38;;;;;;;;;;6247782;23;20412;-86
2023/11/07 21:32:51;;;;;;;22.65;10.15;;;;;;;;;;6247690;23;20000;-86
2023/11/07 21:35:18;;;;;;;13.88;6.25;;;;;;;;;;6247741;23;20081;-86
2023/11/07 21:37:44;;;;;;;23.05;8.88;;;;;;;;;;6247960;23;19996;-85
2023/11/07 21:40:11;;;;;;;27.00;12.00;;;;;;;;;;6220646;23;20015;-85
2023/11/07 21:42:37;;;;;;;14.68;8.30;;;;;;;;;;6247501;23;20031;-85
2023/11/07 21:45:04;;;;;;;11.98;6.95;;;;;;;;;;6247584;23;20004;-85
2023/11/07 21:47:30;;;;;;;12.52;7.90;;;;;;;;;;6247594;23;20072;-86
2023/11/07 21:49:55;;;;;;;12.10;8.75;;;;;;;;;;6247772;23;20384;-86
2023/11/07 21:52:21;;;;;;;7.63;5.65;;;;;;;;;;6247350;23;20004;-87
2023/11/07 21:54:46;;;;;;;8.70;5.10;;;;;;;;;;6247714;23;20418;-85
2023/11/07 21:57:12;;;;;;;4.10;2.55;;;;;;;;;;6220629;23;20007;-85
2023/11/07 21:59:38;;;;;;;5.07;2.10;;;;;;;;;;6247545;23;20071;-86
2023/11/07 22:02:03;;;;;;;3.97;2.20;;;;;;;;;;6247425;23;20091;-90
2023/11/07 22:04:29;;;;;;;2.17;1.90;;;;;;;;;;6220627;23;20446;-85
2023/11/07 22:06:54;;;;;;;2.30;1.70;;;;;;;;;;6220731;23;20368;-87
2023/11/07 22:09:20;;;;;;;2.47;2.17;;;;;;;;;;6220505;23;20004;-86
2023/11/07 22:11:46;;;;;;;1.85;1.70;;;;;;;;;;6220444;23;20052;-85
2023/11/07 22:14:14;;;;;;;2.40;2.03;;;;;;;;;;6220722;23;20331;-86
2023/11/07 22:16:44;;;;;;;4.45;2.47;;;;;;;;;;6247154;23;20005;-85
2023/11/07 22:19:10;;;;;;;4.28;3.00;;;;;;;;;;6247054;23;20000;-86
2023/11/07 22:21:36;;;;;;;3.20;2.90;;;;;;;;;;6246903;23;20008;-85
2023/11/07 22:24:03;;;;;;;2.90;2.70;;;;;;;;;;6247952;23;20039;-87
2023/11/07 22:26:29;;;;;;;4.10;2.95;;;;;;;;;;6247544;23;20004;-86
2023/11/07 22:28:54;;;;;;;3.15;2.67;;;;;;;;;;6247077;23;20328;-88
2023/11/07 22:31:20;;;;;;;2.40;2.20;;;;;;;;;;6220162;23;20079;-86
2023/11/07 22:33:45;;;;;;;2.00;1.90;;;;;;;;;;6219939;23;20014;-86
2023/11/07 22:36:12;;;;;;;3.10;2.33;;;;;;;;;;6247259;23;20000;-87
2023/11/07 22:38:37;;;;;;;2.88;2.67;;;;;;;;;;6219960;23;20331;-86
2023/11/07 22:41:05;;;;;;;4.63;3.03;;;;;;;;;;6246856;23;20028;-87
2023/11/07 22:43:31;;;;;;;2.72;2.53;;;;;;;;;;6220001;23;20427;-87
2023/11/07 22:45:57;;;;;;;4.55;3.35;;;;;;;;;;6246659;23;20005;-86
2023/11/07 22:48:23;;;;;;;2.65;2.45;;;;;;;;;;6247138;23;20004;-87
2023/11/07 22:50:49;;;;;;;4.07;2.13;;;;;;;;;;6219884;23;20008;-87
2023/11/07 22:53:17;;;;;;;2.10;1.80;;;;;;;;;;6220045;23;20022;-87
2023/11/07 22:55:42;;;;;;;3.65;2.65;;;;;;;;;;6219863;23;20000;-86
2023/11/07 22:58:08;;;;;;;2.85;2.33;;;;;;;;;;6246628;23;20300;-86
2023/11/07 23:00:39;;;;;;;3.58;2.20;;;;;;;;;;6246570;23;20374;-87
2023/11/07 23:03:13;;;;;;;1.85;1.75;;;;;;;;;;6246973;23;20323;-87
2023/11/07 23:05:39;;;;;;;1.92;1.83;;;;;;;;;;6219439;23;20016;-86
2023/11/07 23:08:11;;;;;;;3.45;2.17;;;;;;;;;;6219855;23;20020;-85
2023/11/07 23:10:37;;;;;;;2.03;1.85;;;;;;;;;;6246710;23;20010;-86
2023/11/07 23:13:06;;;;;;;2.33;1.80;;;;;;;;;;6246403;23;20054;-86
2023/11/07 23:15:33;;;;;;;2.70;2.10;;;;;;;;;;6246588;23;20007;-86
2023/11/07 23:18:00;;;;;;;2.42;1.90;;;;;;;;;;6246526;23;20010;-85
2023/11/07 23:20:27;;;;;;;2.20;2.00;;;;;;;;;;6246423;23;20000;-86
2023/11/07 23:22:53;;;;;;;2.92;2.10;;;;;;;;;;6246215;23;20011;-86
2023/11/07 23:25:19;;;;;;;2.30;2.05;;;;;;;;;;6246482;23;20004;-86
2023/11/07 23:27:45;;;;;;;2.20;1.95;;;;;;;;;;6219600;23;20028;-86
2023/11/07 23:30:11;;;;;;;2.67;2.25;;;;;;;;;;6219543;23;20005;-86
2023/11/07 23:32:37;;;;;;;2.90;2.60;;;;;;;;;;6246404;23;20454;-85
2023/11/07 23:35:07;;;;;;;3.72;2.95;;;;;;;;;;6246690;23;20083;-86
2023/11/07 23:37:33;;;;;;;3.42;2.90;;;;;;;;;;6246528;23;20000;-86
2023/11/07 23:39:59;;;;;;;3.65;3.10;;;;;;;;;;6246359;23;20322;-86
2023/11/07 23:42:25;;;;;;;4.15;3.22;;;;;;;;;;6246240;23;20091;-86
2023/11/07 23:44:50;;;;;;;3.00;2.80;;;;;;;;;;6219535;23;20028;-86
2023/11/07 23:47:16;;;;;;;4.13;2.65;;;;;;;;;;6194512;23;20012;-86
2023/11/07 23:49:41;;;;;;;5.18;3.50;;;;;;;;;;6247245;23;20063;-86
2023/11/07 23:52:07;;;;;;;2.55;2.35;;;;;;;;;;6248553;23;20075;-86
2023/11/07 23:54:32;;;;;;;3.38;2.45;;;;;;;;;;6221603;23;20083;-86
2023/11/07 23:56:59;;;;;;;2.33;2.05;;;;;;;;;;6248678;23;20023;-87
2023/11/07 23:59:25;;;;;;;2.33;2.05;;;;;;;;;;6248367;23;20057;-86
